createdAt,value
2022-08-25T00:01:37.829Z,15.70
2022-08-25T00:04:10.980Z,20.33
2022-08-25T00:06:39.704Z,20.45
2022-08-25T00:09:08.416Z,21.63
2022-08-25T00:11:37.102Z,17.83
2022-08-25T00:14:07.960Z,21.15
2022-08-25T00:16:35.095Z,18.52
2022-08-25T00:19:07.877Z,19.88
2022-08-25T00:21:34.852Z,19.50
2022-08-25T00:24:02.473Z,19.15
2022-08-25T00:26:30.650Z,24.80
2022-08-25T00:29:01.986Z,19.48
2022-08-25T00:31:38.655Z,17.77
2022-08-25T00:34:15.678Z,20.85
2022-08-25T00:36:43.931Z,16.88
2022-08-25T00:39:11.393Z,18.88
2022-08-25T00:41:40.936Z,19.08
2022-08-25T00:44:10.608Z,22.33
2022-08-25T00:46:43.434Z,22.20
2022-08-25T00:49:33.394Z,19.00
2022-08-25T00:52:05.418Z,20.08
2022-08-25T00:54:45.935Z,17.27
2022-08-25T00:57:15.449Z,19.25
2022-08-25T00:59:44.405Z,24.33
2022-08-25T01:02:13.813Z,16.58
2022-08-25T01:04:48.955Z,20.60
2022-08-25T01:07:19.126Z,22.90
2022-08-25T01:09:48.306Z,20.48
2022-08-25T01:12:15.769Z,18.30
2022-08-25T01:14:46.670Z,22.40
2022-08-25T01:17:14.850Z,17.03
2022-08-25T01:19:42.048Z,18.60
2022-08-25T01:22:08.959Z,18.00
2022-08-25T01:24:53.422Z,14.18
2022-08-25T01:27:20.284Z,16.52
2022-08-25T01:29:47.152Z,19.92
2022-08-25T01:32:14.978Z,17.65
2022-08-25T01:34:44.977Z,16.38
2022-08-25T01:37:15.721Z,16.50
2022-08-25T01:39:43.645Z,19.95
2022-08-25T01:42:36.056Z,21.77
2022-08-25T01:45:03.081Z,19.58
2022-08-25T01:47:32.457Z,19.88
2022-08-25T01:49:59.579Z,16.35
2022-08-25T01:52:36.966Z,17.23
2022-08-25T01:55:04.788Z,20.40
2022-08-25T01:57:31.799Z,16.85
2022-08-25T01:59:59.355Z,18.40
2022-08-25T02:02:26.371Z,15.98
2022-08-25T02:04:53.769Z,19.45
2022-08-25T02:07:20.888Z,17.10
2022-08-25T02:09:47.718Z,17.73
2022-08-25T02:12:15.467Z,20.60
2022-08-25T02:15:03.534Z,21.55
2022-08-25T02:17:30.405Z,19.60
2022-08-25T02:19:57.332Z,16.90
2022-08-25T02:22:24.585Z,17.27
2022-08-25T02:24:51.369Z,17.48
2022-08-25T02:27:18.591Z,17.40
2022-08-25T02:29:47.350Z,17.20
2022-08-25T02:32:14.568Z,18.35
2022-08-25T02:34:41.614Z,22.15
2022-08-25T02:37:08.750Z,15.85
2022-08-25T02:39:35.933Z,23.42
2022-08-25T02:42:03.422Z,17.52
2022-08-25T02:44:31.843Z,17.85
2022-08-25T02:46:59.102Z,16.05
2022-08-25T02:49:26.033Z,20.15
2022-08-25T02:51:54.152Z,16.08
2022-08-25T02:54:21.055Z,26.70
2022-08-25T02:56:48.593Z,21.60
2022-08-25T02:59:15.413Z,18.02
2022-08-25T03:01:42.273Z,18.40
2022-08-25T03:04:09.217Z,22.35
2022-08-25T03:06:36.025Z,19.00
2022-08-25T03:09:02.805Z,22.38
2022-08-25T03:11:29.880Z,21.98
2022-08-25T03:13:57.140Z,19.33
2022-08-25T03:16:24.093Z,20.90
2022-08-25T03:18:54.965Z,19.55
2022-08-25T03:21:22.909Z,23.05
2022-08-25T03:23:49.722Z,16.65
2022-08-25T03:26:35.134Z,22.08
2022-08-25T03:29:05.645Z,20.15
2022-08-25T03:31:33.944Z,19.25
2022-08-25T03:34:01.129Z,22.33
2022-08-25T03:36:28.017Z,18.23
2022-08-25T03:38:55.575Z,19.92
2022-08-25T03:41:28.154Z,25.50
2022-08-25T03:43:56.759Z,21.05
2022-08-25T03:46:32.108Z,20.42
2022-08-25T03:49:01.956Z,19.50
2022-08-25T03:51:40.478Z,26.88
2022-08-25T03:54:08.283Z,20.67
2022-08-25T03:56:35.598Z,23.00
2022-08-25T03:59:03.618Z,18.88
2022-08-25T04:01:30.652Z,21.25
2022-08-25T04:03:57.485Z,21.60
2022-08-25T04:06:24.321Z,21.15
2022-08-25T04:08:52.824Z,21.38
2022-08-25T04:11:22.699Z,21.20
2022-08-25T04:13:50.207Z,21.85
2022-08-25T04:16:25.420Z,20.13
2022-08-25T04:18:53.711Z,22.08
2022-08-25T04:21:22.237Z,16.92
2022-08-25T04:23:50.788Z,19.38
2022-08-25T04:26:21.628Z,24.20
2022-08-25T04:28:49.818Z,21.50
2022-08-25T04:31:17.955Z,23.08
2022-08-25T04:33:46.588Z,22.42
2022-08-25T04:36:13.624Z,25.23
2022-08-25T04:38:42.139Z,23.25
2022-08-25T04:41:11.835Z,23.25
2022-08-25T04:43:40.146Z,23.35
2022-08-25T04:46:20.507Z,18.38
2022-08-25T04:48:49.353Z,20.65
2022-08-25T04:51:18.940Z,22.80
2022-08-25T04:53:46.426Z,20.85
2022-08-25T04:56:15.750Z,17.42
2022-08-25T04:58:43.593Z,18.55
2022-08-25T05:01:17.566Z,19.10
2022-08-25T05:03:46.466Z,16.90
2022-08-25T05:06:16.303Z,17.70
2022-08-25T05:08:45.710Z,21.33
2022-08-25T05:11:14.937Z,18.58
2022-08-25T05:13:43.634Z,19.10
2022-08-25T05:16:17.848Z,24.55
2022-08-25T05:18:45.208Z,17.60
2022-08-25T05:21:16.034Z,19.42
2022-08-25T05:23:43.539Z,19.33
2022-08-25T05:26:19.106Z,18.65
2022-08-25T05:28:48.763Z,19.75
2022-08-25T05:31:15.669Z,20.17
2022-08-25T05:33:43.073Z,24.90
2022-08-25T05:36:11.922Z,22.48
2022-08-25T05:38:40.996Z,24.80
2022-08-25T05:41:15.438Z,25.58
2022-08-25T05:43:44.292Z,28.70
2022-08-25T05:46:12.031Z,22.92
2022-08-25T05:48:39.524Z,20.50
2022-08-25T05:51:08.469Z,24.05
2022-08-25T05:53:36.370Z,27.45
2022-08-25T05:56:03.476Z,20.52
2022-08-25T05:58:31.609Z,24.17
2022-08-25T06:01:20.217Z,22.40
2022-08-25T06:03:47.815Z,21.13
2022-08-25T06:06:16.073Z,23.50
2022-08-25T06:08:44.335Z,21.58
2022-08-25T06:11:12.892Z,20.55
2022-08-25T06:13:40.274Z,18.50
2022-08-25T06:16:07.634Z,17.77
2022-08-25T06:18:34.625Z,19.75
2022-08-25T06:21:08.973Z,18.08
2022-08-25T06:23:37.409Z,19.33
2022-08-25T06:26:04.370Z,19.13
2022-08-25T06:28:31.224Z,19.15
2022-08-25T06:31:00.161Z,18.63
2022-08-25T06:33:27.350Z,22.42
2022-08-25T06:35:59.547Z,22.75
2022-08-25T06:38:26.693Z,18.63
2022-08-25T06:40:53.554Z,21.75
2022-08-25T06:43:21.248Z,24.60
2022-08-25T06:45:48.591Z,24.30
2022-08-25T06:48:15.954Z,25.27
2022-08-25T06:50:44.124Z,22.67
2022-08-25T06:53:11.191Z,26.33
2022-08-25T06:55:38.041Z,25.25
2022-08-25T06:58:05.569Z,17.92
2022-08-25T07:00:37.733Z,20.15
2022-08-25T07:03:05.077Z,24.50
2022-08-25T07:05:43.110Z,18.23
2022-08-25T07:08:11.951Z,18.70
2022-08-25T07:10:39.613Z,16.90
2022-08-25T07:13:06.460Z,20.75
2022-08-25T07:15:38.206Z,23.13
2022-08-25T07:18:05.963Z,22.95
2022-08-25T07:20:35.638Z,20.25
2022-08-25T07:23:02.641Z,20.55
2022-08-25T07:25:30.031Z,23.17
2022-08-25T07:27:59.025Z,18.73
2022-08-25T07:30:26.029Z,17.23
2022-08-25T07:32:55.241Z,19.08
2022-08-25T07:35:26.290Z,21.67
2022-08-25T07:37:57.158Z,23.77
2022-08-25T07:40:33.889Z,18.35
2022-08-25T07:43:03.699Z,18.27
2022-08-25T07:45:34.293Z,19.27
2022-08-25T07:48:07.588Z,20.13
2022-08-25T07:50:36.235Z,20.95
2022-08-25T07:53:03.268Z,17.73
2022-08-25T07:55:30.598Z,19.48
2022-08-25T07:57:59.802Z,18.15
2022-08-25T08:00:27.959Z,17.98
2022-08-25T08:02:55.043Z,18.42
2022-08-25T08:05:22.743Z,16.88
2022-08-25T08:07:51.772Z,17.83
2022-08-25T08:10:47.987Z,19.85
2022-08-25T08:13:07.602Z,22.52
2022-08-25T08:15:35.372Z,23.00
2022-08-25T08:18:03.308Z,18.95
2022-08-25T08:20:36.158Z,26.67
2022-08-25T08:23:11.285Z,19.05
2022-08-25T08:25:38.313Z,19.08
2022-08-25T08:28:07.217Z,17.55
2022-08-25T08:30:36.662Z,23.38
2022-08-25T08:33:12.335Z,23.08
2022-08-25T08:35:41.693Z,22.77
2022-08-25T08:38:14.624Z,20.20
2022-08-25T08:41:22.838Z,16.67
2022-08-25T08:43:56.686Z,18.23
2022-08-25T08:46:26.145Z,19.98
2022-08-25T08:49:02.016Z,19.25
2022-08-25T08:51:39.938Z,16.02
2022-08-25T08:54:15.462Z,24.17
2022-08-25T08:56:48.331Z,17.58
2022-08-25T08:59:30.507Z,18.70
2022-08-25T09:02:04.147Z,20.33
2022-08-25T09:04:49.676Z,17.38
2022-08-25T09:07:24.329Z,16.10
2022-08-25T09:09:52.414Z,18.40
2022-08-25T09:12:34.400Z,19.85
2022-08-25T09:15:13.981Z,16.40
2022-08-25T09:18:13.335Z,18.33
2022-08-25T09:20:58.269Z,17.38
2022-08-25T09:23:46.533Z,19.70
2022-08-25T09:26:31.750Z,19.08
2022-08-25T09:29:06.348Z,17.50
2022-08-25T09:31:43.185Z,22.88
2022-08-25T09:34:24.881Z,16.20
2022-08-25T09:36:53.512Z,20.40
2022-08-25T09:39:21.310Z,18.88
2022-08-25T09:41:56.336Z,15.98
2022-08-25T09:44:31.248Z,16.90
2022-08-25T09:47:02.308Z,16.27
2022-08-25T09:49:41.191Z,16.77
2022-08-25T09:52:33.486Z,16.00
2022-08-25T09:55:22.295Z,17.52
2022-08-25T09:57:53.181Z,16.08
2022-08-25T10:00:33.611Z,18.67
2022-08-25T10:03:22.551Z,16.35
2022-08-25T10:06:04.657Z,18.10
2022-08-25T10:08:43.620Z,19.13
2022-08-25T10:11:15.183Z,18.30
2022-08-25T10:13:44.564Z,16.73
2022-08-25T10:16:26.378Z,15.55
2022-08-25T10:19:08.522Z,15.13
2022-08-25T10:21:38.273Z,16.25
2022-08-25T10:24:06.154Z,20.60
2022-08-25T10:26:55.674Z,17.08
2022-08-25T10:29:41.046Z,16.80
2022-08-25T10:32:24.752Z,16.38
2022-08-25T10:34:58.074Z,16.52
2022-08-25T10:37:55.418Z,15.95
2022-08-25T10:40:35.018Z,20.55
2022-08-25T10:43:54.872Z,15.82
2022-08-25T10:47:27.781Z,16.75
2022-08-25T10:50:30.179Z,20.35
2022-08-25T10:53:37.449Z,17.42
2022-08-25T10:56:17.361Z,16.02
2022-08-25T10:59:11.643Z,21.23
2022-08-25T11:02:08.457Z,20.88
2022-08-25T11:04:37.950Z,18.42
2022-08-25T11:07:10.757Z,18.80
2022-08-25T11:09:42.020Z,20.85
2022-08-25T11:12:11.942Z,18.13
2022-08-25T11:14:54.264Z,16.33
2022-08-25T11:17:47.116Z,16.60
2022-08-25T11:20:26.725Z,16.13
2022-08-25T11:23:21.947Z,22.17
2022-08-25T11:26:00.844Z,17.98
2022-08-25T11:28:35.505Z,17.40
2022-08-25T11:31:05.133Z,16.95
2022-08-25T11:33:33.272Z,20.60
2022-08-25T11:36:05.765Z,20.13
2022-08-25T11:38:48.012Z,16.85
2022-08-25T11:41:25.554Z,18.60
2022-08-25T11:44:13.903Z,17.00
2022-08-25T11:47:05.718Z,17.67
2022-08-25T11:50:03.517Z,18.05
2022-08-25T11:52:34.650Z,19.15
2022-08-25T11:55:43.686Z,22.85
2022-08-25T11:58:26.193Z,19.65
2022-08-25T12:00:54.731Z,19.10
2022-08-25T12:03:36.839Z,19.30
2022-08-25T12:06:25.596Z,17.58
2022-08-25T12:09:01.289Z,21.42
2022-08-25T12:11:48.829Z,24.20
2022-08-25T12:14:24.686Z,20.23
2022-08-25T12:16:55.259Z,21.45
2022-08-25T12:19:34.369Z,25.27
2022-08-25T12:22:04.409Z,22.02
2022-08-25T12:24:37.360Z,17.83
2022-08-25T12:27:06.763Z,18.85
2022-08-25T12:29:48.569Z,20.65
2022-08-25T12:32:41.624Z,22.80
2022-08-25T12:35:17.378Z,17.83
2022-08-25T12:38:32.260Z,14.75
2022-08-25T12:41:24.827Z,18.73
2022-08-25T12:43:54.607Z,13.93
2022-08-25T12:46:21.763Z,16.33
2022-08-25T12:49:00.495Z,17.70
2022-08-25T12:51:48.520Z,23.27
2022-08-25T12:54:22.469Z,20.27
2022-08-25T12:57:00.345Z,19.33
2022-08-25T12:59:31.541Z,16.92
2022-08-25T13:02:24.118Z,16.80
2022-08-25T13:05:03.055Z,22.52
2022-08-25T13:08:06.802Z,16.33
2022-08-25T13:10:52.921Z,21.75
2022-08-25T13:13:34.678Z,18.67
2022-08-25T13:16:08.956Z,16.52
2022-08-25T13:18:38.497Z,26.98
2022-08-25T13:23:42.689Z,23.27
2022-08-25T13:26:15.378Z,18.23
2022-08-25T13:28:50.157Z,17.77
2022-08-25T13:31:28.221Z,20.13
2022-08-25T13:34:02.627Z,16.95
2022-08-25T13:37:02.123Z,15.63
2022-08-25T13:39:55.118Z,15.73
2022-08-25T13:42:20.099Z,19.10
2022-08-25T13:44:52.049Z,17.48
2022-08-25T13:47:45.760Z,16.25
2022-08-25T13:50:28.860Z,15.52
2022-08-25T13:52:58.523Z,18.98
2022-08-25T13:55:50.952Z,19.65
2022-08-25T13:58:24.606Z,16.95
2022-08-25T14:01:19.716Z,16.98
2022-08-25T14:03:51.752Z,19.55
2022-08-25T14:06:20.587Z,18.23
2022-08-25T14:08:59.584Z,15.30
2022-08-25T14:11:30.845Z,19.52
2022-08-25T14:14:03.970Z,22.23
2022-08-25T14:16:39.384Z,18.25
2022-08-25T14:19:19.903Z,17.27
2022-08-25T14:21:47.682Z,17.73
2022-08-25T14:24:18.453Z,18.70
2022-08-25T14:26:53.846Z,19.30
2022-08-25T14:29:22.251Z,18.80
2022-08-25T14:31:50.218Z,19.60
2022-08-25T14:34:20.994Z,17.63
2022-08-25T14:39:15.705Z,18.80
2022-08-25T14:41:45.300Z,19.73
2022-08-25T14:44:18.545Z,16.25
2022-08-25T14:46:50.964Z,15.90
2022-08-25T14:49:24.969Z,20.55
2022-08-25T14:51:52.109Z,15.25
2022-08-25T14:54:25.449Z,16.90
2022-08-25T14:56:52.501Z,17.52
2022-08-25T14:59:19.326Z,19.67
2022-08-25T15:01:46.544Z,21.48
2022-08-25T15:04:26.576Z,19.05
2022-08-25T15:07:00.061Z,16.27
2022-08-25T15:09:33.315Z,19.85
2022-08-25T15:12:00.713Z,18.35
2022-08-25T15:14:28.843Z,26.92
2022-08-25T15:17:01.732Z,23.98
2022-08-25T15:19:29.224Z,20.48
2022-08-25T15:21:57.993Z,21.55
2022-08-25T15:24:27.616Z,19.88
2022-08-25T15:27:00.123Z,20.88
2022-08-25T15:29:30.181Z,20.98
2022-08-25T15:31:59.017Z,26.92
2022-08-25T15:34:26.378Z,19.20
2022-08-25T15:36:53.615Z,19.27
2022-08-25T15:39:20.548Z,19.52
2022-08-25T15:41:54.223Z,21.92
2022-08-25T15:44:23.360Z,28.98
2022-08-25T15:46:51.958Z,34.40
2022-08-25T15:49:20.635Z,19.30
2022-08-25T15:51:52.539Z,23.65
2022-08-25T15:54:20.764Z,30.60
2022-08-25T15:56:47.730Z,33.60
2022-08-25T15:59:14.789Z,32.00
2022-08-25T16:01:42.026Z,31.27
2022-08-25T16:04:09.525Z,28.23
2022-08-25T16:06:37.494Z,22.58
2022-08-25T16:09:07.365Z,29.15
2022-08-25T16:11:35.491Z,25.90
2022-08-25T16:14:06.218Z,25.88
2022-08-25T16:16:33.373Z,36.25
2022-08-25T16:19:04.009Z,26.83
2022-08-25T16:21:35.482Z,29.15
2022-08-25T16:24:07.387Z,32.25
2022-08-25T16:26:36.504Z,28.38
2022-08-25T16:29:06.442Z,24.73
2022-08-25T16:31:33.698Z,24.73
2022-08-25T16:34:01.613Z,25.35
2022-08-25T16:36:29.344Z,29.83
2022-08-25T16:38:57.752Z,24.55
2022-08-25T16:41:29.261Z,34.38
2022-08-25T16:43:58.647Z,41.25
2022-08-25T16:46:25.830Z,29.33
2022-08-25T16:48:53.384Z,31.52
2022-08-25T16:51:22.753Z,36.67
2022-08-25T16:54:15.925Z,35.38
2022-08-25T16:56:50.740Z,31.23
2022-08-25T16:59:23.553Z,30.63
2022-08-25T17:01:52.450Z,36.42
2022-08-25T17:04:20.102Z,37.85
2022-08-25T17:06:51.760Z,51.88
2022-08-25T17:11:54.391Z,48.47
2022-08-25T17:14:21.923Z,41.72
2022-08-25T17:16:51.271Z,39.30
2022-08-25T17:19:18.803Z,38.67
2022-08-25T17:21:50.011Z,39.67
2022-08-25T17:24:18.159Z,39.25
2022-08-25T17:26:49.821Z,50.22
2022-08-25T17:29:19.595Z,33.55
2022-08-25T17:31:48.503Z,36.00
2022-08-25T17:34:16.200Z,38.13
2022-08-25T17:36:44.112Z,35.90
2022-08-25T17:39:14.088Z,33.97
2022-08-25T17:41:43.964Z,32.60
2022-08-25T17:44:11.310Z,39.20
2022-08-25T17:46:47.098Z,33.38
2022-08-25T17:49:15.804Z,35.30
2022-08-25T17:51:42.750Z,32.33
2022-08-25T17:54:09.903Z,31.52
2022-08-25T17:56:37.946Z,31.80
2022-08-25T17:59:05.044Z,32.28
2022-08-25T18:01:40.574Z,31.15
2022-08-25T18:04:17.863Z,29.00
2022-08-25T18:06:48.556Z,32.10
2022-08-25T18:09:16.519Z,31.98
2022-08-25T18:11:44.664Z,29.25
2022-08-25T18:14:14.386Z,33.05
2022-08-25T18:16:42.254Z,28.05
2022-08-25T18:19:10.899Z,29.30
2022-08-25T18:21:38.058Z,30.25
2022-08-25T18:24:06.421Z,32.50
2022-08-25T18:26:33.781Z,30.63
2022-08-25T18:29:01.479Z,24.92
2022-08-25T18:31:28.598Z,29.85
2022-08-25T18:33:55.560Z,25.92
2022-08-25T18:36:22.491Z,28.45
2022-08-25T18:39:08.793Z,30.42
2022-08-25T18:41:40.043Z,27.33
2022-08-25T18:44:08.678Z,28.17
2022-08-25T18:46:38.022Z,30.05
2022-08-25T18:49:05.725Z,23.90
2022-08-25T18:51:33.218Z,24.65
2022-08-25T18:54:01.061Z,26.00
2022-08-25T18:56:28.338Z,27.60
2022-08-25T18:58:55.202Z,26.70
2022-08-25T19:01:22.176Z,25.17
2022-08-25T19:03:50.435Z,22.10
2022-08-25T19:06:18.036Z,32.85
2022-08-25T19:08:47.017Z,24.55
2022-08-25T19:11:15.941Z,28.55
2022-08-25T19:13:43.578Z,26.85
2022-08-25T19:16:17.892Z,27.88
2022-08-25T19:18:50.064Z,23.67
2022-08-25T19:21:22.839Z,26.50
2022-08-25T19:23:53.500Z,27.77
2022-08-25T19:26:21.472Z,30.88
2022-08-25T19:28:49.578Z,29.08
2022-08-25T19:31:23.470Z,24.67
2022-08-25T19:33:52.721Z,26.55
2022-08-25T19:36:24.162Z,26.75
2022-08-25T19:38:58.339Z,24.05
2022-08-25T19:41:27.572Z,27.23
2022-08-25T19:43:57.439Z,28.52
2022-08-25T19:46:32.630Z,26.92
2022-08-25T19:49:08.159Z,27.80
2022-08-25T19:51:40.808Z,27.98
2022-08-25T19:54:12.550Z,23.20
2022-08-25T19:56:43.635Z,26.48
2022-08-25T19:59:23.134Z,23.75
2022-08-25T20:01:50.191Z,27.38
2022-08-25T20:04:17.364Z,25.08
2022-08-25T20:06:48.350Z,28.30
2022-08-25T20:09:21.106Z,27.52
2022-08-25T20:12:06.224Z,27.33
2022-08-25T20:14:34.013Z,27.08
2022-08-25T20:17:02.086Z,31.05
2022-08-25T20:19:31.177Z,40.00
2022-08-25T20:21:58.961Z,31.75
2022-08-25T20:24:44.838Z,25.75
2022-08-25T20:27:12.359Z,25.27
2022-08-25T20:29:39.225Z,24.92
2022-08-25T20:32:11.488Z,26.90
2022-08-25T20:34:38.446Z,25.45
2022-08-25T20:37:06.048Z,22.80
2022-08-25T20:39:33.884Z,28.60
2022-08-25T20:42:02.365Z,28.42
2022-08-25T20:44:33.738Z,26.05
2022-08-25T20:47:07.343Z,26.27
2022-08-25T20:49:37.875Z,28.60
2022-08-25T20:52:06.217Z,27.63
2022-08-25T20:54:34.335Z,34.80
2022-08-25T20:57:02.551Z,27.17
2022-08-25T20:59:29.677Z,23.25
2022-08-25T21:01:56.808Z,26.50
2022-08-25T21:04:26.741Z,24.85
2022-08-25T21:06:53.603Z,26.52
2022-08-25T21:09:23.765Z,26.50
2022-08-25T21:11:53.955Z,28.47
2022-08-25T21:14:22.124Z,30.52
2022-08-25T21:16:49.561Z,33.08
2022-08-25T21:19:26.587Z,28.52
2022-08-25T21:21:59.660Z,31.00
2022-08-25T21:24:28.455Z,34.13
2022-08-25T21:26:57.474Z,29.25
2022-08-25T21:29:26.036Z,31.45
2022-08-25T21:31:56.533Z,31.38
2022-08-25T21:34:23.380Z,22.50
2022-08-25T21:36:50.245Z,28.00
2022-08-25T21:39:18.056Z,34.47
2022-08-25T21:41:45.734Z,30.60
2022-08-25T21:44:13.949Z,34.08
2022-08-25T21:46:41.805Z,32.75
2022-08-25T21:49:21.017Z,30.90
2022-08-25T21:51:50.959Z,28.33
2022-08-25T21:54:24.127Z,30.58
2022-08-25T21:56:54.609Z,28.63
2022-08-25T21:59:24.375Z,32.22
2022-08-25T22:01:55.202Z,31.80
2022-08-25T22:06:50.554Z,25.13
2022-08-25T22:09:17.536Z,29.35
2022-08-25T22:11:46.323Z,28.30
2022-08-25T22:14:14.904Z,30.20
2022-08-25T22:16:42.712Z,29.17
2022-08-25T22:19:12.005Z,33.15
2022-08-25T22:21:43.441Z,30.38
2022-08-25T22:24:11.413Z,30.30
2022-08-25T22:26:39.171Z,31.08
2022-08-25T22:29:06.555Z,33.92
2022-08-25T22:31:34.153Z,33.90
2022-08-25T22:34:01.085Z,27.98
2022-08-25T22:36:35.792Z,27.48
2022-08-25T22:39:05.056Z,31.83
2022-08-25T22:41:32.237Z,25.67
2022-08-25T22:44:00.487Z,32.85
2022-08-25T22:49:00.213Z,33.63
2022-08-25T22:51:31.581Z,31.40
2022-08-25T22:54:00.225Z,34.53
2022-08-25T22:56:35.445Z,35.20
2022-08-25T22:59:07.182Z,28.05
2022-08-25T23:01:34.826Z,36.55
2022-08-25T23:04:03.067Z,27.88
2022-08-25T23:06:30.717Z,36.88
2022-08-25T23:08:58.562Z,38.08
2022-08-25T23:11:25.720Z,32.92
2022-08-25T23:14:00.385Z,33.75
2022-08-25T23:16:28.463Z,29.13
2022-08-25T23:18:55.349Z,26.08
2022-08-25T23:21:42.541Z,29.58
2022-08-25T23:24:13.876Z,29.70
2022-08-25T23:26:54.359Z,27.17
2022-08-25T23:29:21.252Z,25.88
2022-08-25T23:31:48.237Z,30.63
2022-08-25T23:34:16.671Z,32.05
2022-08-25T23:36:44.560Z,28.92
2022-08-25T23:39:11.650Z,32.25
2022-08-25T23:41:38.959Z,27.58
2022-08-25T23:44:06.789Z,30.42
2022-08-25T23:46:36.326Z,27.98
2022-08-25T23:49:08.193Z,25.35
2022-08-25T23:51:38.117Z,30.83
2022-08-25T23:54:09.253Z,27.48
2022-08-25T23:56:37.125Z,30.42
2022-08-25T23:59:10.740Z,29.10
